sensor_id;sensor_type;location;lat;lon;timestamp;P1;durP1;ratioP1;P2;durP2;ratioP2
22737;SDS011;11536;50.860;4.286;2023-04-03T00:01:57;7.45;;;4.30;;
22737;SDS011;11536;50.860;4.286;2023-04-03T00:04:22;9.70;;;4.70;;
22737;SDS011;11536;50.860;4.286;2023-04-03T00:06:48;9.75;;;4.63;;
22737;SDS011;11536;50.860;4.286;2023-04-03T00:09:13;8.02;;;4.13;;
22737;SDS011;11536;50.860;4.286;2023-04-03T00:11:39;9.00;;;3.90;;
22737;SDS011;11536;50.860;4.286;2023-04-03T00:14:05;6.55;;;3.50;;
22737;SDS011;11536;50.860;4.286;2023-04-03T00:16:30;7.70;;;3.70;;
22737;SDS011;11536;50.860;4.286;2023-04-03T00:18:57;7.45;;;3.67;;
22737;SDS011;11536;50.860;4.286;2023-04-03T00:21:22;7.93;;;3.80;;
22737;SDS011;11536;50.860;4.286;2023-04-03T00:23:48;8.50;;;3.65;;
22737;SDS011;11536;50.860;4.286;2023-04-03T00:26:13;7.32;;;3.90;;
22737;SDS011;11536;50.860;4.286;2023-04-03T00:28:39;11.27;;;3.65;;
22737;SDS011;11536;50.860;4.286;2023-04-03T00:31:05;8.40;;;3.80;;
22737;SDS011;11536;50.860;4.286;2023-04-03T00:33:30;8.20;;;3.65;;
22737;SDS011;11536;50.860;4.286;2023-04-03T00:35:56;11.00;;;3.90;;
22737;SDS011;11536;50.860;4.286;2023-04-03T00:38:21;8.82;;;3.65;;
22737;SDS011;11536;50.860;4.286;2023-04-03T00:40:48;8.60;;;3.58;;
22737;SDS011;11536;50.860;4.286;2023-04-03T00:43:19;9.18;;;4.22;;
22737;SDS011;11536;50.860;4.286;2023-04-03T00:45:51;8.82;;;3.70;;
22737;SDS011;11536;50.860;4.286;2023-04-03T00:48:20;7.63;;;3.67;;
22737;SDS011;11536;50.860;4.286;2023-04-03T00:50:52;9.88;;;3.63;;
22737;SDS011;11536;50.860;4.286;2023-04-03T00:53:22;9.75;;;3.45;;
22737;SDS011;11536;50.860;4.286;2023-04-03T00:55:50;9.70;;;3.53;;
22737;SDS011;11536;50.860;4.286;2023-04-03T00:58:18;10.05;;;3.60;;
22737;SDS011;11536;50.860;4.286;2023-04-03T01:00:46;7.78;;;3.13;;
22737;SDS011;11536;50.860;4.286;2023-04-03T01:03:21;8.95;;;3.15;;
22737;SDS011;11536;50.860;4.286;2023-04-03T01:05:47;7.90;;;3.75;;
22737;SDS011;11536;50.860;4.286;2023-04-03T01:08:12;9.13;;;3.22;;
22737;SDS011;11536;50.860;4.286;2023-04-03T01:10:38;9.68;;;3.40;;
22737;SDS011;11536;50.860;4.286;2023-04-03T01:13:17;7.15;;;3.17;;
22737;SDS011;11536;50.860;4.286;2023-04-03T01:15:52;6.32;;;3.20;;
22737;SDS011;11536;50.860;4.286;2023-04-03T01:18:19;7.63;;;3.60;;
22737;SDS011;11536;50.860;4.286;2023-04-03T01:25:50;8.07;;;3.28;;
22737;SDS011;11536;50.860;4.286;2023-04-03T01:28:18;7.50;;;3.38;;
22737;SDS011;11536;50.860;4.286;2023-04-03T01:31:00;8.63;;;3.40;;
22737;SDS011;11536;50.860;4.286;2023-04-03T01:33:46;6.90;;;3.30;;
22737;SDS011;11536;50.860;4.286;2023-04-03T01:36:17;7.45;;;3.10;;
22737;SDS011;11536;50.860;4.286;2023-04-03T01:38:45;7.72;;;3.55;;
22737;SDS011;11536;50.860;4.286;2023-04-03T01:41:11;10.15;;;3.70;;
22737;SDS011;11536;50.860;4.286;2023-04-03T01:43:37;8.75;;;3.88;;
22737;SDS011;11536;50.860;4.286;2023-04-03T01:46:02;9.45;;;3.55;;
22737;SDS011;11536;50.860;4.286;2023-04-03T01:48:28;7.80;;;3.47;;
22737;SDS011;11536;50.860;4.286;2023-04-03T01:50:54;8.88;;;3.50;;
22737;SDS011;11536;50.860;4.286;2023-04-03T01:53:19;8.60;;;3.70;;
22737;SDS011;11536;50.860;4.286;2023-04-03T01:55:45;10.40;;;4.10;;
22737;SDS011;11536;50.860;4.286;2023-04-03T01:58:11;8.60;;;3.25;;
22737;SDS011;11536;50.860;4.286;2023-04-03T02:00:36;7.18;;;3.03;;
22737;SDS011;11536;50.860;4.286;2023-04-03T02:03:02;7.30;;;3.55;;
22737;SDS011;11536;50.860;4.286;2023-04-03T02:05:28;8.50;;;3.25;;
22737;SDS011;11536;50.860;4.286;2023-04-03T02:07:53;7.07;;;3.75;;
22737;SDS011;11536;50.860;4.286;2023-04-03T02:10:19;8.60;;;3.67;;
22737;SDS011;11536;50.860;4.286;2023-04-03T02:12:45;7.45;;;4.13;;
22737;SDS011;11536;50.860;4.286;2023-04-03T02:15:11;7.75;;;3.42;;
22737;SDS011;11536;50.860;4.286;2023-04-03T02:17:36;8.27;;;3.85;;
22737;SDS011;11536;50.860;4.286;2023-04-03T02:20:02;8.00;;;3.67;;
22737;SDS011;11536;50.860;4.286;2023-04-03T02:22:28;7.10;;;3.53;;
22737;SDS011;11536;50.860;4.286;2023-04-03T02:24:54;7.25;;;3.40;;
22737;SDS011;11536;50.860;4.286;2023-04-03T02:27:20;9.02;;;3.42;;
22737;SDS011;11536;50.860;4.286;2023-04-03T02:29:45;7.68;;;3.40;;
22737;SDS011;11536;50.860;4.286;2023-04-03T02:32:11;7.22;;;3.30;;
22737;SDS011;11536;50.860;4.286;2023-04-03T02:34:37;6.97;;;3.67;;
22737;SDS011;11536;50.860;4.286;2023-04-03T02:37:02;6.45;;;3.20;;
22737;SDS011;11536;50.860;4.286;2023-04-03T02:39:28;6.70;;;3.58;;
22737;SDS011;11536;50.860;4.286;2023-04-03T02:41:53;7.28;;;3.33;;
22737;SDS011;11536;50.860;4.286;2023-04-03T02:44:19;6.97;;;3.67;;
22737;SDS011;11536;50.860;4.286;2023-04-03T02:46:45;7.80;;;3.72;;
22737;SDS011;11536;50.860;4.286;2023-04-03T02:49:10;9.95;;;3.80;;
22737;SDS011;11536;50.860;4.286;2023-04-03T02:51:36;9.48;;;3.38;;
22737;SDS011;11536;50.860;4.286;2023-04-03T02:54:02;7.05;;;3.65;;
22737;SDS011;11536;50.860;4.286;2023-04-03T02:56:27;8.68;;;3.65;;
22737;SDS011;11536;50.860;4.286;2023-04-03T02:58:53;7.20;;;3.55;;
22737;SDS011;11536;50.860;4.286;2023-04-03T03:01:20;9.57;;;3.90;;
22737;SDS011;11536;50.860;4.286;2023-04-03T03:03:45;7.97;;;3.78;;
22737;SDS011;11536;50.860;4.286;2023-04-03T03:06:14;7.63;;;3.50;;
22737;SDS011;11536;50.860;4.286;2023-04-03T03:08:41;6.57;;;3.22;;
22737;SDS011;11536;50.860;4.286;2023-04-03T03:11:08;7.90;;;3.83;;
22737;SDS011;11536;50.860;4.286;2023-04-03T03:13:34;7.43;;;4.13;;
22737;SDS011;11536;50.860;4.286;2023-04-03T03:16:00;7.53;;;3.65;;
22737;SDS011;11536;50.860;4.286;2023-04-03T03:18:26;6.45;;;3.30;;
22737;SDS011;11536;50.860;4.286;2023-04-03T03:20:53;8.85;;;3.88;;
22737;SDS011;11536;50.860;4.286;2023-04-03T03:23:22;7.18;;;3.85;;
22737;SDS011;11536;50.860;4.286;2023-04-03T03:25:49;10.18;;;3.95;;
22737;SDS011;11536;50.860;4.286;2023-04-03T03:28:23;7.85;;;4.38;;
22737;SDS011;11536;50.860;4.286;2023-04-03T03:30:49;6.90;;;3.20;;
22737;SDS011;11536;50.860;4.286;2023-04-03T03:33:15;6.82;;;3.50;;
22737;SDS011;11536;50.860;4.286;2023-04-03T03:35:42;9.15;;;3.85;;
22737;SDS011;11536;50.860;4.286;2023-04-03T03:38:08;8.48;;;4.07;;
22737;SDS011;11536;50.860;4.286;2023-04-03T03:40:34;9.02;;;4.18;;
22737;SDS011;11536;50.860;4.286;2023-04-03T03:43:00;6.72;;;3.80;;
22737;SDS011;11536;50.860;4.286;2023-04-03T03:45:25;8.63;;;4.00;;
22737;SDS011;11536;50.860;4.286;2023-04-03T03:47:51;7.45;;;3.50;;
22737;SDS011;11536;50.860;4.286;2023-04-03T03:50:17;8.15;;;3.33;;
22737;SDS011;11536;50.860;4.286;2023-04-03T03:52:42;6.80;;;4.13;;
22737;SDS011;11536;50.860;4.286;2023-04-03T03:55:08;9.27;;;3.75;;
22737;SDS011;11536;50.860;4.286;2023-04-03T03:57:34;7.20;;;3.50;;
22737;SDS011;11536;50.860;4.286;2023-04-03T04:00:00;9.77;;;3.65;;
22737;SDS011;11536;50.860;4.286;2023-04-03T04:02:25;8.40;;;3.78;;
22737;SDS011;11536;50.860;4.286;2023-04-03T04:04:51;7.00;;;3.60;;
22737;SDS011;11536;50.860;4.286;2023-04-03T04:07:17;6.63;;;3.70;;
22737;SDS011;11536;50.860;4.286;2023-04-03T04:09:42;6.63;;;3.38;;
22737;SDS011;11536;50.860;4.286;2023-04-03T04:12:08;7.93;;;3.90;;
22737;SDS011;11536;50.860;4.286;2023-04-03T04:14:33;7.18;;;3.30;;
22737;SDS011;11536;50.860;4.286;2023-04-03T04:16:59;7.43;;;3.60;;
22737;SDS011;11536;50.860;4.286;2023-04-03T04:19:27;7.57;;;3.88;;
22737;SDS011;11536;50.860;4.286;2023-04-03T04:21:52;8.52;;;3.67;;
22737;SDS011;11536;50.860;4.286;2023-04-03T04:24:18;7.57;;;3.95;;
22737;SDS011;11536;50.860;4.286;2023-04-03T04:26:44;6.65;;;3.67;;
22737;SDS011;11536;50.860;4.286;2023-04-03T04:29:10;10.25;;;3.90;;
22737;SDS011;11536;50.860;4.286;2023-04-03T04:31:36;7.00;;;3.65;;
22737;SDS011;11536;50.860;4.286;2023-04-03T04:34:01;8.00;;;4.38;;
22737;SDS011;11536;50.860;4.286;2023-04-03T04:36:27;8.93;;;4.00;;
22737;SDS011;11536;50.860;4.286;2023-04-03T04:38:52;7.97;;;4.13;;
22737;SDS011;11536;50.860;4.286;2023-04-03T04:41:21;6.03;;;3.72;;
22737;SDS011;11536;50.860;4.286;2023-04-03T04:43:48;7.78;;;3.63;;
22737;SDS011;11536;50.860;4.286;2023-04-03T04:46:14;10.27;;;4.20;;
22737;SDS011;11536;50.860;4.286;2023-04-03T04:48:40;10.60;;;4.45;;
22737;SDS011;11536;50.860;4.286;2023-04-03T04:51:06;12.38;;;4.40;;
22737;SDS011;11536;50.860;4.286;2023-04-03T04:53:32;10.05;;;4.35;;
22737;SDS011;11536;50.860;4.286;2023-04-03T04:55:57;8.63;;;4.50;;
22737;SDS011;11536;50.860;4.286;2023-04-03T04:58:23;11.13;;;4.95;;
22737;SDS011;11536;50.860;4.286;2023-04-03T05:00:49;9.02;;;4.82;;
22737;SDS011;11536;50.860;4.286;2023-04-03T05:03:14;8.57;;;4.43;;
22737;SDS011;11536;50.860;4.286;2023-04-03T05:05:40;9.23;;;5.30;;
22737;SDS011;11536;50.860;4.286;2023-04-03T05:08:06;10.73;;;4.65;;
22737;SDS011;11536;50.860;4.286;2023-04-03T05:10:33;9.32;;;4.50;;
22737;SDS011;11536;50.860;4.286;2023-04-03T05:12:59;10.30;;;4.78;;
22737;SDS011;11536;50.860;4.286;2023-04-03T05:15:25;10.38;;;4.60;;
22737;SDS011;11536;50.860;4.286;2023-04-03T05:17:50;11.38;;;4.88;;
22737;SDS011;11536;50.860;4.286;2023-04-03T05:20:16;8.00;;;4.35;;
22737;SDS011;11536;50.860;4.286;2023-04-03T05:22:42;10.73;;;4.68;;
22737;SDS011;11536;50.860;4.286;2023-04-03T05:25:09;10.35;;;4.63;;
22737;SDS011;11536;50.860;4.286;2023-04-03T05:27:35;9.75;;;4.63;;
22737;SDS011;11536;50.860;4.286;2023-04-03T05:30:00;12.57;;;4.82;;
22737;SDS011;11536;50.860;4.286;2023-04-03T05:32:26;11.38;;;4.78;;
22737;SDS011;11536;50.860;4.286;2023-04-03T05:34:52;12.95;;;5.07;;
22737;SDS011;11536;50.860;4.286;2023-04-03T05:37:18;10.32;;;4.93;;
22737;SDS011;11536;50.860;4.286;2023-04-03T05:39:44;10.27;;;4.72;;
22737;SDS011;11536;50.860;4.286;2023-04-03T05:42:10;9.57;;;5.20;;
22737;SDS011;11536;50.860;4.286;2023-04-03T05:44:37;9.20;;;4.72;;
22737;SDS011;11536;50.860;4.286;2023-04-03T05:47:03;9.75;;;4.78;;
22737;SDS011;11536;50.860;4.286;2023-04-03T05:49:29;10.73;;;5.35;;
22737;SDS011;11536;50.860;4.286;2023-04-03T05:51:55;10.75;;;5.30;;
22737;SDS011;11536;50.860;4.286;2023-04-03T05:56:51;10.18;;;5.10;;
22737;SDS011;11536;50.860;4.286;2023-04-03T05:59:18;11.32;;;5.65;;
22737;SDS011;11536;50.860;4.286;2023-04-03T06:01:46;11.45;;;5.40;;
22737;SDS011;11536;50.860;4.286;2023-04-03T06:04:12;12.77;;;6.07;;
22737;SDS011;11536;50.860;4.286;2023-04-03T06:06:43;9.82;;;5.22;;
22737;SDS011;11536;50.860;4.286;2023-04-03T06:09:10;11.07;;;5.75;;
22737;SDS011;11536;50.860;4.286;2023-04-03T06:11:36;12.57;;;5.60;;
22737;SDS011;11536;50.860;4.286;2023-04-03T06:14:01;12.52;;;5.63;;
22737;SDS011;11536;50.860;4.286;2023-04-03T06:16:28;12.43;;;5.40;;
22737;SDS011;11536;50.860;4.286;2023-04-03T06:18:53;11.32;;;5.38;;
22737;SDS011;11536;50.860;4.286;2023-04-03T06:21:20;10.65;;;5.93;;
22737;SDS011;11536;50.860;4.286;2023-04-03T06:23:45;12.43;;;6.07;;
22737;SDS011;11536;50.860;4.286;2023-04-03T06:26:11;10.32;;;5.70;;
22737;SDS011;11536;50.860;4.286;2023-04-03T06:28:36;13.45;;;6.28;;
22737;SDS011;11536;50.860;4.286;2023-04-03T06:31:02;12.57;;;5.78;;
22737;SDS011;11536;50.860;4.286;2023-04-03T06:33:28;12.95;;;6.05;;
22737;SDS011;11536;50.860;4.286;2023-04-03T06:35:57;10.23;;;5.60;;
22737;SDS011;11536;50.860;4.286;2023-04-03T06:38:23;11.75;;;6.03;;
22737;SDS011;11536;50.860;4.286;2023-04-03T06:40:48;10.68;;;5.60;;
22737;SDS011;11536;50.860;4.286;2023-04-03T06:43:15;12.63;;;5.80;;
22737;SDS011;11536;50.860;4.286;2023-04-03T06:45:40;10.27;;;5.72;;
22737;SDS011;11536;50.860;4.286;2023-04-03T06:48:06;12.45;;;5.93;;
22737;SDS011;11536;50.860;4.286;2023-04-03T06:50:32;8.60;;;5.10;;
22737;SDS011;11536;50.860;4.286;2023-04-03T06:52:57;11.30;;;5.65;;
22737;SDS011;11536;50.860;4.286;2023-04-03T06:55:23;10.38;;;5.68;;
22737;SDS011;11536;50.860;4.286;2023-04-03T06:57:48;12.90;;;5.63;;
22737;SDS011;11536;50.860;4.286;2023-04-03T07:00:14;10.40;;;5.72;;
22737;SDS011;11536;50.860;4.286;2023-04-03T07:02:41;8.38;;;5.30;;
22737;SDS011;11536;50.860;4.286;2023-04-03T07:05:07;11.18;;;5.80;;
22737;SDS011;11536;50.860;4.286;2023-04-03T07:07:34;11.85;;;6.10;;
22737;SDS011;11536;50.860;4.286;2023-04-03T07:10:00;11.48;;;6.35;;
22737;SDS011;11536;50.860;4.286;2023-04-03T07:12:25;12.88;;;6.30;;
22737;SDS011;11536;50.860;4.286;2023-04-03T07:14:51;10.43;;;5.65;;
22737;SDS011;11536;50.860;4.286;2023-04-03T07:17:17;12.40;;;6.22;;
22737;SDS011;11536;50.860;4.286;2023-04-03T07:19:42;12.48;;;6.35;;
22737;SDS011;11536;50.860;4.286;2023-04-03T07:22:08;11.13;;;6.10;;
22737;SDS011;11536;50.860;4.286;2023-04-03T07:24:35;12.95;;;6.30;;
22737;SDS011;11536;50.860;4.286;2023-04-03T07:27:02;13.02;;;6.72;;
22737;SDS011;11536;50.860;4.286;2023-04-03T07:29:28;10.68;;;5.85;;
22737;SDS011;11536;50.860;4.286;2023-04-03T07:31:53;11.75;;;5.68;;
22737;SDS011;11536;50.860;4.286;2023-04-03T07:34:20;10.43;;;5.22;;
22737;SDS011;11536;50.860;4.286;2023-04-03T07:36:46;13.07;;;5.72;;
22737;SDS011;11536;50.860;4.286;2023-04-03T07:39:11;12.35;;;5.70;;
22737;SDS011;11536;50.860;4.286;2023-04-03T07:41:37;12.32;;;6.65;;
22737;SDS011;11536;50.860;4.286;2023-04-03T07:44:03;16.63;;;6.15;;
22737;SDS011;11536;50.860;4.286;2023-04-03T07:46:30;10.80;;;5.75;;
22737;SDS011;11536;50.860;4.286;2023-04-03T07:48:56;11.68;;;5.70;;
22737;SDS011;11536;50.860;4.286;2023-04-03T07:51:22;11.57;;;5.45;;
22737;SDS011;11536;50.860;4.286;2023-04-03T07:53:48;12.00;;;5.90;;
22737;SDS011;11536;50.860;4.286;2023-04-03T07:56:14;13.45;;;5.80;;
22737;SDS011;11536;50.860;4.286;2023-04-03T07:58:41;11.25;;;5.82;;
22737;SDS011;11536;50.860;4.286;2023-04-03T08:01:07;11.88;;;6.40;;
22737;SDS011;11536;50.860;4.286;2023-04-03T08:03:33;11.02;;;6.00;;
22737;SDS011;11536;50.860;4.286;2023-04-03T08:06:03;14.30;;;5.40;;
22737;SDS011;11536;50.860;4.286;2023-04-03T08:08:29;11.68;;;5.70;;
22737;SDS011;11536;50.860;4.286;2023-04-03T08:10:57;10.25;;;5.55;;
22737;SDS011;11536;50.860;4.286;2023-04-03T08:13:24;11.60;;;5.90;;
22737;SDS011;11536;50.860;4.286;2023-04-03T08:15:50;12.02;;;5.60;;
22737;SDS011;11536;50.860;4.286;2023-04-03T08:18:16;19.05;;;6.80;;
22737;SDS011;11536;50.860;4.286;2023-04-03T08:20:43;10.98;;;5.97;;
22737;SDS011;11536;50.860;4.286;2023-04-03T08:23:09;11.57;;;5.30;;
22737;SDS011;11536;50.860;4.286;2023-04-03T08:25:39;11.90;;;5.97;;
22737;SDS011;11536;50.860;4.286;2023-04-03T08:28:06;10.50;;;5.57;;
22737;SDS011;11536;50.860;4.286;2023-04-03T08:30:33;10.57;;;5.75;;
22737;SDS011;11536;50.860;4.286;2023-04-03T08:33:02;11.85;;;5.55;;
22737;SDS011;11536;50.860;4.286;2023-04-03T08:35:28;11.30;;;5.25;;
22737;SDS011;11536;50.860;4.286;2023-04-03T08:37:54;13.25;;;5.70;;
22737;SDS011;11536;50.860;4.286;2023-04-03T08:40:20;9.02;;;4.70;;
22737;SDS011;11536;50.860;4.286;2023-04-03T08:45:17;13.05;;;5.60;;
22737;SDS011;11536;50.860;4.286;2023-04-03T08:50:30;11.70;;;5.55;;
22737;SDS011;11536;50.860;4.286;2023-04-03T08:53:00;8.38;;;4.78;;
22737;SDS011;11536;50.860;4.286;2023-04-03T08:58:03;10.57;;;4.90;;
22737;SDS011;11536;50.860;4.286;2023-04-03T09:00:37;7.05;;;3.95;;
22737;SDS011;11536;50.860;4.286;2023-04-03T09:03:12;12.02;;;4.47;;
22737;SDS011;11536;50.860;4.286;2023-04-03T09:10:57;9.25;;;3.95;;
22737;SDS011;11536;50.860;4.286;2023-04-03T09:16:52;7.97;;;3.70;;
22737;SDS011;11536;50.860;4.286;2023-04-03T09:24:43;9.85;;;3.47;;
22737;SDS011;11536;50.860;4.286;2023-04-03T09:27:12;6.82;;;3.58;;
22737;SDS011;11536;50.860;4.286;2023-04-03T09:29:39;8.45;;;3.72;;
22737;SDS011;11536;50.860;4.286;2023-04-03T09:32:27;7.20;;;3.30;;
22737;SDS011;11536;50.860;4.286;2023-04-03T09:34:56;9.80;;;3.17;;
22737;SDS011;11536;50.860;4.286;2023-04-03T09:37:35;10.93;;;3.28;;
22737;SDS011;11536;50.860;4.286;2023-04-03T09:40:28;8.23;;;2.75;;
22737;SDS011;11536;50.860;4.286;2023-04-03T09:42:59;8.00;;;2.70;;
22737;SDS011;11536;50.860;4.286;2023-04-03T09:45:41;7.82;;;2.47;;
22737;SDS011;11536;50.860;4.286;2023-04-03T09:50:33;10.13;;;2.75;;
22737;SDS011;11536;50.860;4.286;2023-04-03T09:53:05;6.95;;;2.35;;
22737;SDS011;11536;50.860;4.286;2023-04-03T09:55:32;5.85;;;2.20;;
22737;SDS011;11536;50.860;4.286;2023-04-03T09:58:06;7.25;;;2.00;;
22737;SDS011;11536;50.860;4.286;2023-04-03T10:01:09;4.90;;;1.63;;
22737;SDS011;11536;50.860;4.286;2023-04-03T10:03:51;6.05;;;2.83;;
22737;SDS011;11536;50.860;4.286;2023-04-03T10:06:37;6.10;;;1.90;;
22737;SDS011;11536;50.860;4.286;2023-04-03T10:09:19;5.22;;;1.80;;
22737;SDS011;11536;50.860;4.286;2023-04-03T10:14:55;6.60;;;2.00;;
22737;SDS011;11536;50.860;4.286;2023-04-03T10:17:43;6.32;;;2.05;;
22737;SDS011;11536;50.860;4.286;2023-04-03T10:20:26;5.50;;;2.20;;
22737;SDS011;11536;50.860;4.286;2023-04-03T10:28:37;5.63;;;1.77;;
22737;SDS011;11536;50.860;4.286;2023-04-03T10:42:08;3.67;;;1.33;;
22737;SDS011;11536;50.860;4.286;2023-04-03T10:44:48;6.35;;;1.70;;
22737;SDS011;11536;50.860;4.286;2023-04-03T10:58:32;4.65;;;1.25;;
22737;SDS011;11536;50.860;4.286;2023-04-03T11:01:02;3.88;;;1.40;;
22737;SDS011;11536;50.860;4.286;2023-04-03T11:03:38;5.40;;;1.50;;
22737;SDS011;11536;50.860;4.286;2023-04-03T11:06:08;6.43;;;1.70;;
22737;SDS011;11536;50.860;4.286;2023-04-03T11:08:43;6.22;;;1.73;;
22737;SDS011;11536;50.860;4.286;2023-04-03T11:11:20;6.75;;;1.48;;
22737;SDS011;11536;50.860;4.286;2023-04-03T11:16:30;3.25;;;1.02;;
22737;SDS011;11536;50.860;4.286;2023-04-03T11:19:03;3.75;;;1.08;;
22737;SDS011;11536;50.860;4.286;2023-04-03T11:21:41;5.43;;;1.10;;
22737;SDS011;11536;50.860;4.286;2023-04-03T11:24:15;3.28;;;1.30;;
22737;SDS011;11536;50.860;4.286;2023-04-03T11:26:46;5.13;;;1.45;;
22737;SDS011;11536;50.860;4.286;2023-04-03T11:29:17;3.65;;;1.60;;
22737;SDS011;11536;50.860;4.286;2023-04-03T11:31:56;5.07;;;1.35;;
22737;SDS011;11536;50.860;4.286;2023-04-03T11:34:41;3.40;;;1.13;;
22737;SDS011;11536;50.860;4.286;2023-04-03T11:37:14;7.22;;;1.40;;
22737;SDS011;11536;50.860;4.286;2023-04-03T11:39:56;3.55;;;1.35;;
22737;SDS011;11536;50.860;4.286;2023-04-03T11:42:34;3.20;;;0.88;;
22737;SDS011;11536;50.860;4.286;2023-04-03T11:50:31;4.38;;;1.00;;
22737;SDS011;11536;50.860;4.286;2023-04-03T12:00:59;3.53;;;1.00;;
22737;SDS011;11536;50.860;4.286;2023-04-03T12:09:01;5.10;;;1.30;;
22737;SDS011;11536;50.860;4.286;2023-04-03T12:11:31;4.88;;;1.45;;
22737;SDS011;11536;50.860;4.286;2023-04-03T12:16:29;4.50;;;1.05;;
22737;SDS011;11536;50.860;4.286;2023-04-03T12:18:59;3.67;;;1.07;;
22737;SDS011;11536;50.860;4.286;2023-04-03T12:24:39;6.70;;;1.20;;
22737;SDS011;11536;50.860;4.286;2023-04-03T12:27:15;3.88;;;1.02;;
22737;SDS011;11536;50.860;4.286;2023-04-03T12:29:59;4.50;;;1.30;;
22737;SDS011;11536;50.860;4.286;2023-04-03T12:32:35;2.97;;;1.05;;
22737;SDS011;11536;50.860;4.286;2023-04-03T12:38:16;2.03;;;0.60;;
22737;SDS011;11536;50.860;4.286;2023-04-03T12:43:43;4.45;;;0.88;;
22737;SDS011;11536;50.860;4.286;2023-04-03T12:52:00;5.22;;;0.88;;
22737;SDS011;11536;50.860;4.286;2023-04-03T12:54:37;4.35;;;1.27;;
22737;SDS011;11536;50.860;4.286;2023-04-03T12:57:18;3.80;;;0.90;;
22737;SDS011;11536;50.860;4.286;2023-04-03T12:59:45;3.15;;;1.10;;
22737;SDS011;11536;50.860;4.286;2023-04-03T13:02:28;3.28;;;0.80;;
22737;SDS011;11536;50.860;4.286;2023-04-03T13:04:58;2.55;;;0.68;;
22737;SDS011;11536;50.860;4.286;2023-04-03T13:07:32;2.90;;;0.90;;
22737;SDS011;11536;50.860;4.286;2023-04-03T13:12:47;4.43;;;1.33;;
22737;SDS011;11536;50.860;4.286;2023-04-03T13:15:26;3.47;;;1.00;;
22737;SDS011;11536;50.860;4.286;2023-04-03T13:17:56;3.30;;;0.70;;
22737;SDS011;11536;50.860;4.286;2023-04-03T13:20:29;2.05;;;0.70;;
22737;SDS011;11536;50.860;4.286;2023-04-03T13:23:05;2.72;;;0.70;;
22737;SDS011;11536;50.860;4.286;2023-04-03T13:25:35;2.58;;;0.68;;
22737;SDS011;11536;50.860;4.286;2023-04-03T13:30:41;3.17;;;0.80;;
22737;SDS011;11536;50.860;4.286;2023-04-03T13:33:22;2.22;;;0.50;;
22737;SDS011;11536;50.860;4.286;2023-04-03T13:36:36;4.00;;;0.80;;
22737;SDS011;11536;50.860;4.286;2023-04-03T13:38:43;2.63;;;0.80;;
22737;SDS011;11536;50.860;4.286;2023-04-03T13:43:45;3.47;;;0.70;;
22737;SDS011;11536;50.860;4.286;2023-04-03T13:48:41;3.53;;;0.80;;
22737;SDS011;11536;50.860;4.286;2023-04-03T13:53:44;2.53;;;0.77;;
22737;SDS011;11536;50.860;4.286;2023-04-03T13:56:17;3.25;;;0.70;;
22737;SDS011;11536;50.860;4.286;2023-04-03T13:58:55;2.17;;;0.60;;
22737;SDS011;11536;50.860;4.286;2023-04-03T14:01:21;3.40;;;1.10;;
22737;SDS011;11536;50.860;4.286;2023-04-03T14:03:58;2.42;;;0.70;;
22737;SDS011;11536;50.860;4.286;2023-04-03T14:06:26;3.08;;;0.73;;
22737;SDS011;11536;50.860;4.286;2023-04-03T14:08:58;4.00;;;0.82;;
22737;SDS011;11536;50.860;4.286;2023-04-03T14:11:24;4.88;;;0.93;;
22737;SDS011;11536;50.860;4.286;2023-04-03T14:13:56;3.47;;;0.80;;
22737;SDS011;11536;50.860;4.286;2023-04-03T14:16:37;3.63;;;1.10;;
22737;SDS011;11536;50.860;4.286;2023-04-03T14:19:25;2.50;;;0.70;;
22737;SDS011;11536;50.860;4.286;2023-04-03T14:21:56;2.08;;;0.73;;
22737;SDS011;11536;50.860;4.286;2023-04-03T14:24:23;2.30;;;0.65;;
22737;SDS011;11536;50.860;4.286;2023-04-03T14:26:49;3.38;;;0.80;;
22737;SDS011;11536;50.860;4.286;2023-04-03T14:29:17;3.38;;;0.93;;
22737;SDS011;11536;50.860;4.286;2023-04-03T14:31:45;2.80;;;0.80;;
22737;SDS011;11536;50.860;4.286;2023-04-03T14:34:12;3.70;;;0.90;;
22737;SDS011;11536;50.860;4.286;2023-04-03T14:36:38;2.05;;;0.70;;
22737;SDS011;11536;50.860;4.286;2023-04-03T14:39:06;2.97;;;0.90;;
22737;SDS011;11536;50.860;4.286;2023-04-03T14:41:33;1.83;;;0.75;;
22737;SDS011;11536;50.860;4.286;2023-04-03T14:44:04;5.72;;;1.27;;
22737;SDS011;11536;50.860;4.286;2023-04-03T14:46:32;4.35;;;0.70;;
22737;SDS011;11536;50.860;4.286;2023-04-03T14:48:59;1.95;;;0.80;;
22737;SDS011;11536;50.860;4.286;2023-04-03T14:51:25;3.17;;;0.85;;
22737;SDS011;11536;50.860;4.286;2023-04-03T14:53:53;3.85;;;1.05;;
22737;SDS011;11536;50.860;4.286;2023-04-03T14:56:25;3.15;;;0.75;;
22737;SDS011;11536;50.860;4.286;2023-04-03T14:58:57;2.55;;;0.70;;
22737;SDS011;11536;50.860;4.286;2023-04-03T15:01:24;3.13;;;0.90;;
22737;SDS011;11536;50.860;4.286;2023-04-03T15:03:51;2.38;;;0.80;;
22737;SDS011;11536;50.860;4.286;2023-04-03T15:06:17;3.95;;;0.73;;
22737;SDS011;11536;50.860;4.286;2023-04-03T15:08:44;3.75;;;0.90;;
22737;SDS011;11536;50.860;4.286;2023-04-03T15:11:12;3.53;;;0.88;;
22737;SDS011;11536;50.860;4.286;2023-04-03T15:13:38;4.65;;;1.00;;
22737;SDS011;11536;50.860;4.286;2023-04-03T15:16:04;4.47;;;0.80;;
22737;SDS011;11536;50.860;4.286;2023-04-03T15:18:43;2.90;;;0.80;;
22737;SDS011;11536;50.860;4.286;2023-04-03T15:21:09;6.68;;;0.90;;
22737;SDS011;11536;50.860;4.286;2023-04-03T15:23:35;3.60;;;0.80;;
22737;SDS011;11536;50.860;4.286;2023-04-03T15:26:01;2.08;;;0.80;;
22737;SDS011;11536;50.860;4.286;2023-04-03T15:28:28;3.97;;;0.90;;
22737;SDS011;11536;50.860;4.286;2023-04-03T15:31:01;2.65;;;0.73;;
22737;SDS011;11536;50.860;4.286;2023-04-03T15:33:28;3.17;;;0.73;;
22737;SDS011;11536;50.860;4.286;2023-04-03T15:35:54;2.30;;;0.65;;
22737;SDS011;11536;50.860;4.286;2023-04-03T15:38:23;3.70;;;0.80;;
22737;SDS011;11536;50.860;4.286;2023-04-03T15:40:49;2.50;;;0.90;;
22737;SDS011;11536;50.860;4.286;2023-04-03T15:43:15;1.75;;;0.65;;
22737;SDS011;11536;50.860;4.286;2023-04-03T15:45:41;4.18;;;1.20;;
22737;SDS011;11536;50.860;4.286;2023-04-03T15:48:10;3.28;;;0.90;;
22737;SDS011;11536;50.860;4.286;2023-04-03T15:50:37;2.90;;;0.75;;
22737;SDS011;11536;50.860;4.286;2023-04-03T15:53:03;3.25;;;0.52;;
22737;SDS011;11536;50.860;4.286;2023-04-03T15:55:30;2.70;;;0.70;;
22737;SDS011;11536;50.860;4.286;2023-04-03T15:57:57;2.13;;;0.70;;
22737;SDS011;11536;50.860;4.286;2023-04-03T16:00:23;4.30;;;0.80;;
22737;SDS011;11536;50.860;4.286;2023-04-03T16:02:53;2.70;;;0.82;;
22737;SDS011;11536;50.860;4.286;2023-04-03T16:05:22;3.25;;;0.80;;
22737;SDS011;11536;50.860;4.286;2023-04-03T16:07:49;2.58;;;0.80;;
22737;SDS011;11536;50.860;4.286;2023-04-03T16:10:16;2.80;;;0.90;;
22737;SDS011;11536;50.860;4.286;2023-04-03T16:12:43;4.25;;;0.80;;
22737;SDS011;11536;50.860;4.286;2023-04-03T16:15:09;3.17;;;0.90;;
22737;SDS011;11536;50.860;4.286;2023-04-03T16:17:35;3.17;;;0.85;;
22737;SDS011;11536;50.860;4.286;2023-04-03T16:20:03;5.13;;;1.00;;
22737;SDS011;11536;50.860;4.286;2023-04-03T16:22:30;3.47;;;0.93;;
22737;SDS011;11536;50.860;4.286;2023-04-03T16:24:58;3.90;;;0.90;;
22737;SDS011;11536;50.860;4.286;2023-04-03T16:27:23;3.10;;;0.90;;
22737;SDS011;11536;50.860;4.286;2023-04-03T16:29:57;2.85;;;0.82;;
22737;SDS011;11536;50.860;4.286;2023-04-03T16:32:23;3.22;;;0.80;;
22737;SDS011;11536;50.860;4.286;2023-04-03T16:34:52;3.45;;;0.90;;
22737;SDS011;11536;50.860;4.286;2023-04-03T16:37:18;4.55;;;1.20;;
22737;SDS011;11536;50.860;4.286;2023-04-03T16:39:43;4.70;;;1.40;;
22737;SDS011;11536;50.860;4.286;2023-04-03T16:42:09;4.03;;;1.20;;
22737;SDS011;11536;50.860;4.286;2023-04-03T16:44:36;3.03;;;0.93;;
22737;SDS011;11536;50.860;4.286;2023-04-03T16:47:01;3.30;;;1.10;;